Time;durP1;ratioP1;P1;durP2;ratioP2;P2;SDS_P1;SDS_P2;PMS_P1;PMS_P2;Temp;Humidity;BMP_temperature;BMP_pressure;BME280_temperature;BME280_humidity;BME280_pressure;Samples;Min_cycle;Max_cycle;Signal;HPM_P1;HPM_P2
2021/12/31 00:00:47;;;;;;;41.53;27.90;;;6.30;90.00;;;;;;4824390;29;20053;-73
2021/12/31 00:03:16;;;;;;;42.63;29.47;;;6.30;90.00;;;;;;4824203;29;20109;-74
2021/12/31 00:05:43;;;;;;;43.00;28.00;;;6.30;90.00;;;;;;4824219;29;20038;-73
2021/12/31 00:08:09;;;;;;;39.80;27.47;;;6.30;90.00;;;;;;4824362;29;20083;-74
2021/12/31 00:10:35;;;;;;;40.07;28.10;;;6.30;90.00;;;;;;4824381;29;20434;-73
2021/12/31 00:13:01;;;;;;;45.17;29.10;;;6.20;89.40;;;;;;4824413;29;20035;-72
2021/12/31 00:15:26;;;;;;;40.30;27.80;;;6.10;89.60;;;;;;4824406;29;20030;-72
2021/12/31 00:17:52;;;;;;;39.00;27.87;;;6.00;89.70;;;;;;4824191;29;20110;-72
2021/12/31 00:20:22;;;;;;;36.63;26.57;;;6.00;90.00;;;;;;4824156;29;20027;-72
2021/12/31 00:23:06;;;;;;;39.83;27.03;;;5.90;90.20;;;;;;4824277;29;20091;-71
2021/12/31 00:25:33;;;;;;;38.10;26.27;;;5.90;90.20;;;;;;4824194;29;20050;-71
2021/12/31 00:27:59;;;;;;;36.00;26.53;;;5.90;90.30;;;;;;4824108;29;20457;-71
2021/12/31 00:30:25;;;;;;;34.33;24.37;;;5.90;90.60;;;;;;4824093;29;20030;-72
2021/12/31 00:32:51;;;;;;;38.80;25.93;;;5.90;90.50;;;;;;4823985;29;20034;-72
2021/12/31 00:35:17;;;;;;;38.47;26.60;;;5.90;90.50;;;;;;4823983;29;20034;-74
2021/12/31 00:37:44;;;;;;;34.00;24.60;;;6.00;90.40;;;;;;4824094;29;20038;-74
2021/12/31 00:40:12;;;;;;;38.13;23.97;;;6.00;90.30;;;;;;4824078;29;20087;-74
2021/12/31 00:42:39;;;;;;;31.87;23.47;;;6.00;90.30;;;;;;4826424;29;20549;-74
2021/12/31 00:45:07;;;;;;;34.30;23.30;;;6.00;90.20;;;;;;4827198;29;20073;-74
2021/12/31 00:47:33;;;;;;;31.17;21.57;;;6.00;90.10;;;;;;4827206;29;20043;-74
2021/12/31 00:49:59;;;;;;;31.97;24.03;;;6.00;90.00;;;;;;4827053;29;20077;-74
2021/12/31 00:52:24;;;;;;;31.53;23.70;;;6.00;89.80;;;;;;4827176;29;20090;-74
2021/12/31 00:54:50;;;;;;;32.60;22.57;;;6.00;89.60;;;;;;4827202;29;20034;-72
2021/12/31 00:57:16;;;;;;;34.63;23.17;;;5.90;89.40;;;;;;4827258;29;20034;-71
2021/12/31 00:59:41;;;;;;;31.80;21.77;;;5.90;89.60;;;;;;4827188;29;20392;-72
2021/12/31 01:02:08;;;;;;;32.13;22.90;;;5.90;89.80;;;;;;4827351;29;20078;-74
2021/12/31 01:04:34;;;;;;;33.93;23.50;;;5.80;90.00;;;;;;4827114;29;20030;-74
2021/12/31 01:07:01;;;;;;;34.10;23.90;;;5.80;90.00;;;;;;4827147;29;20507;-73
2021/12/31 01:09:28;;;;;;;34.17;23.77;;;5.80;90.00;;;;;;4826948;29;20034;-74
2021/12/31 01:11:56;;;;;;;30.30;22.57;;;5.80;90.00;;;;;;4827068;29;20488;-74
2021/12/31 01:14:30;;;;;;;35.37;24.37;;;5.80;90.00;;;;;;4826749;29;20435;-74
2021/12/31 01:17:03;;;;;;;36.10;23.30;;;5.70;89.90;;;;;;4827000;29;20043;-73
2021/12/31 01:19:46;;;;;;;35.83;24.73;;;5.60;90.00;;;;;;4826876;29;20027;-74
2021/12/31 01:22:25;;;;;;;32.03;22.73;;;5.60;90.10;;;;;;4826913;29;20030;-73
2021/12/31 01:24:51;;;;;;;34.00;23.53;;;5.50;90.00;;;;;;4826486;29;20056;-73
2021/12/31 01:27:17;;;;;;;31.93;22.33;;;5.60;90.00;;;;;;4826748;29;20034;-73
2021/12/31 01:29:43;;;;;;;32.70;22.57;;;5.60;90.00;;;;;;4826767;29;20027;-71
2021/12/31 01:32:09;;;;;;;32.60;22.80;;;5.50;90.10;;;;;;4826709;29;20034;-73
2021/12/31 01:34:36;;;;;;;37.10;24.83;;;5.60;90.10;;;;;;4826681;29;20033;-74
2021/12/31 01:37:02;;;;;;;34.67;24.30;;;5.60;90.10;;;;;;4826523;29;20041;-74
2021/12/31 01:39:29;;;;;;;35.67;25.57;;;5.50;89.80;;;;;;4826560;29;20019;-73
2021/12/31 01:41:57;;;;;;;31.87;24.03;;;5.50;90.00;;;;;;4826459;29;20086;-74
2021/12/31 01:44:28;;;;;;;36.33;24.80;;;5.40;89.70;;;;;;4826326;29;20030;-71
2021/12/31 01:46:59;;;;;;;37.07;24.47;;;5.40;90.00;;;;;;4826390;29;20042;-71
2021/12/31 01:49:33;;;;;;;35.80;24.60;;;5.50;90.00;;;;;;4826352;29;20053;-73
2021/12/31 01:51:59;;;;;;;36.60;24.30;;;5.50;89.90;;;;;;4826000;29;20030;-74
2021/12/31 01:54:25;;;;;;;32.87;23.43;;;5.40;89.50;;;;;;4826357;29;20037;-71
2021/12/31 01:56:53;;;;;;;34.70;22.53;;;5.40;89.50;;;;;;4826308;29;20130;-72
2021/12/31 01:59:19;;;;;;;32.13;23.03;;;5.40;89.30;;;;;;4823506;29;20062;-72
2021/12/31 02:01:45;;;;;;;33.13;21.60;;;5.40;88.90;;;;;;4823688;29;20034;-72
2021/12/31 02:04:11;;;;;;;29.53;19.33;;;5.40;89.10;;;;;;4823924;29;20045;-72
2021/12/31 02:06:37;;;;;;;32.67;20.23;;;5.30;89.40;;;;;;4825816;29;20046;-72
2021/12/31 02:09:05;;;;;;;28.07;19.80;;;5.20;89.10;;;;;;4826149;29;20502;-72
2021/12/31 02:11:31;;;;;;;28.30;19.17;;;5.20;89.80;;;;;;4825930;29;20122;-72
2021/12/31 02:13:58;;;;;;;27.83;19.70;;;5.20;90.00;;;;;;4825595;29;20167;-72
2021/12/31 02:16:24;;;;;;;26.37;18.87;;;5.20;90.10;;;;;;4826115;29;20480;-72
2021/12/31 02:18:50;;;;;;;26.63;19.70;;;5.20;90.10;;;;;;4825962;29;20031;-72
2021/12/31 02:21:16;;;;;;;33.40;20.47;;;5.20;90.10;;;;;;4825962;29;20122;-72
2021/12/31 02:23:45;;;;;;;32.73;21.80;;;5.30;89.80;;;;;;4826041;29;20134;-72
2021/12/31 02:26:11;;;;;;;31.87;22.03;;;5.20;89.20;;;;;;4825794;29;20049;-72
2021/12/31 02:28:38;;;;;;;31.50;22.27;;;5.20;89.20;;;;;;4825501;29;20038;-72
2021/12/31 02:31:03;;;;;;;31.53;21.10;;;5.20;89.70;;;;;;4825707;29;20105;-72
2021/12/31 02:33:31;;;;;;;32.33;21.73;;;5.10;89.60;;;;;;4825430;29;20110;-71
2021/12/31 02:35:58;;;;;;;34.10;22.53;;;5.10;88.80;;;;;;4825176;29;20040;-72
2021/12/31 02:38:24;;;;;;;28.10;20.53;;;5.00;89.80;;;;;;4825721;29;20472;-72
2021/12/31 02:40:49;;;;;;;32.07;20.63;;;5.10;90.10;;;;;;4825656;29;20044;-72
2021/12/31 02:43:15;;;;;;;32.97;20.27;;;5.10;89.60;;;;;;4825099;29;20121;-73
2021/12/31 02:45:42;;;;;;;30.27;20.50;;;5.10;89.30;;;;;;4825281;29;20125;-72
2021/12/31 02:48:08;;;;;;;30.23;21.03;;;5.10;89.10;;;;;;4825523;29;20027;-72
2021/12/31 02:50:39;;;;;;;28.73;20.23;;;5.10;89.50;;;;;;4825173;29;20103;-72
2021/12/31 02:53:10;;;;;;;31.77;19.90;;;5.00;88.80;;;;;;4825300;29;20034;-73
2021/12/31 02:55:37;;;;;;;32.23;20.37;;;5.00;88.40;;;;;;4825526;29;20026;-72
2021/12/31 02:58:05;;;;;;;29.10;21.10;;;5.00;88.60;;;;;;4825151;29;20038;-72
2021/12/31 03:00:32;;;;;;;30.97;20.83;;;4.90;88.90;;;;;;4825250;29;20027;-72
2021/12/31 03:03:01;;;;;;;28.60;19.27;;;4.90;89.20;;;;;;4825233;29;20034;-72
2021/12/31 03:05:29;;;;;;;29.40;20.03;;;4.90;89.60;;;;;;4824716;29;20576;-72
2021/12/31 03:07:57;;;;;;;31.17;19.77;;;4.90;90.00;;;;;;4825366;29;20023;-72
2021/12/31 03:10:25;;;;;;;27.70;19.40;;;4.90;90.20;;;;;;4825231;29;20369;-73
2021/12/31 03:12:52;;;;;;;34.30;21.33;;;4.90;90.20;;;;;;4824927;29;20030;-73
2021/12/31 03:15:18;;;;;;;33.07;20.97;;;4.90;90.00;;;;;;4825344;29;20037;-73
2021/12/31 03:17:45;;;;;;;28.37;19.73;;;4.90;90.00;;;;;;4825290;29;20035;-72
2021/12/31 03:20:25;;;;;;;31.37;19.97;;;4.90;89.90;;;;;;4825106;29;20027;-72
2021/12/31 03:22:51;;;;;;;29.83;20.63;;;4.90;90.00;;;;;;4825246;29;20050;-72
2021/12/31 03:25:17;;;;;;;26.33;17.90;;;5.00;89.80;;;;;;4824972;29;20042;-73
2021/12/31 03:27:42;;;;;;;29.20;18.43;;;4.90;89.30;;;;;;4824835;29;20107;-72
2021/12/31 03:30:10;;;;;;;29.53;19.90;;;4.90;89.60;;;;;;4838603;29;20075;-72
2021/12/31 03:32:36;;;;;;;32.07;20.10;;;4.90;89.40;;;;;;4825274;29;20414;-72
2021/12/31 03:35:02;;;;;;;26.93;18.63;;;4.80;89.40;;;;;;4824614;29;20030;-72
2021/12/31 03:37:28;;;;;;;29.73;19.00;;;4.90;89.60;;;;;;4824813;29;20038;-72
2021/12/31 03:39:54;;;;;;;27.67;19.17;;;4.80;89.20;;;;;;4824756;29;20480;-73
2021/12/31 03:42:20;;;;;;;28.93;19.93;;;4.80;89.00;;;;;;4824668;29;20551;-72
2021/12/31 03:44:46;;;;;;;28.73;18.77;;;4.70;89.20;;;;;;4824447;29;20025;-72
2021/12/31 03:47:12;;;;;;;23.00;17.50;;;4.70;89.40;;;;;;4823372;29;20050;-72
2021/12/31 03:49:37;;;;;;;27.57;17.90;;;4.60;88.70;;;;;;4824684;29;20058;-72
2021/12/31 03:52:04;;;;;;;27.60;18.40;;;4.60;89.20;;;;;;4824761;29;20039;-72
2021/12/31 03:54:29;;;;;;;31.07;20.00;;;4.60;89.20;;;;;;4824660;29;20030;-73
2021/12/31 03:56:55;;;;;;;30.57;19.77;;;4.50;89.40;;;;;;4824507;29;20385;-72
2021/12/31 03:59:21;;;;;;;24.77;17.80;;;4.50;89.90;;;;;;4824356;29;20399;-73
2021/12/31 04:01:46;;;;;;;27.77;18.37;;;4.50;90.00;;;;;;4824500;29;20534;-72
2021/12/31 04:04:13;;;;;;;27.70;18.70;;;4.50;89.80;;;;;;4824429;29;20433;-72
2021/12/31 04:06:39;;;;;;;26.37;18.43;;;4.50;89.80;;;;;;4824409;29;20048;-73
2021/12/31 04:09:05;;;;;;;25.10;17.17;;;4.60;89.90;;;;;;4824370;29;20102;-73
2021/12/31 04:11:31;;;;;;;24.20;17.80;;;4.60;89.60;;;;;;4824398;29;20040;-72
2021/12/31 04:13:56;;;;;;;26.80;17.47;;;4.60;89.20;;;;;;4824344;29;20026;-72
2021/12/31 04:16:22;;;;;;;26.67;18.37;;;4.60;89.10;;;;;;4824140;29;20042;-73
2021/12/31 04:18:47;;;;;;;27.73;17.10;;;4.60;88.90;;;;;;4824367;29;20042;-72
2021/12/31 04:21:18;;;;;;;28.90;18.13;;;4.60;88.90;;;;;;4824295;29;20034;-72
2021/12/31 04:24:29;;;;;;;25.97;17.77;;;4.50;88.60;;;;;;4823091;29;20060;-72
2021/12/31 04:26:33;;;;;;;28.40;18.10;;;4.50;88.60;;;;;;4826226;29;20547;-73
2021/12/31 04:28:58;;;;;;;27.60;18.90;;;4.50;88.60;;;;;;4824226;29;20109;-72
2021/12/31 04:31:24;;;;;;;27.27;18.63;;;4.40;88.70;;;;;;4824076;29;20041;-72
2021/12/31 04:33:50;;;;;;;27.30;18.47;;;4.40;89.10;;;;;;4824466;29;20038;-73
2021/12/31 04:36:16;;;;;;;29.80;18.00;;;4.40;89.50;;;;;;4825028;29;20033;-73
2021/12/31 04:38:41;;;;;;;27.87;18.33;;;4.30;89.00;;;;;;4824200;29;20069;-72
2021/12/31 04:41:07;;;;;;;26.93;18.30;;;4.30;89.30;;;;;;4823904;29;20062;-72
2021/12/31 04:43:33;;;;;;;25.73;17.83;;;4.20;89.60;;;;;;4838158;29;20035;-73
2021/12/31 04:45:58;;;;;;;26.00;17.53;;;4.20;89.80;;;;;;4824048;29;20045;-72
2021/12/31 04:48:24;;;;;;;26.33;18.20;;;4.20;89.80;;;;;;4823864;29;20504;-73
2021/12/31 04:50:50;;;;;;;30.47;18.37;;;4.20;90.00;;;;;;4824110;29;20396;-73
2021/12/31 04:53:16;;;;;;;25.40;18.20;;;4.20;89.90;;;;;;4823793;29;20400;-73
2021/12/31 04:55:42;;;;;;;28.10;18.13;;;4.10;90.10;;;;;;4824006;29;20034;-72
2021/12/31 04:58:08;;;;;;;25.07;17.83;;;4.20;90.00;;;;;;4823819;29;20023;-72
2021/12/31 05:00:34;;;;;;;24.97;17.10;;;4.20;89.70;;;;;;4823690;29;20388;-73
2021/12/31 05:03:10;;;;;;;22.67;17.17;;;4.30;89.80;;;;;;4837669;29;20401;-72
2021/12/31 05:05:36;;;;;;;31.20;19.17;;;4.20;89.30;;;;;;4823694;29;20032;-73
2021/12/31 05:08:03;;;;;;;25.40;17.70;;;4.20;89.10;;;;;;4823611;29;20034;-73
2021/12/31 05:10:33;;;;;;;27.13;17.50;;;4.20;89.50;;;;;;4823791;29;20026;-73
2021/12/31 05:13:00;;;;;;;25.93;18.47;;;4.20;89.50;;;;;;4823469;29;20030;-73
2021/12/31 05:15:28;;;;;;;27.90;17.97;;;4.20;89.30;;;;;;4823823;29;20031;-72
2021/12/31 05:17:54;;;;;;;25.97;17.23;;;4.20;89.30;;;;;;4823611;29;20045;-72
2021/12/31 05:20:20;;;;;;;29.93;17.77;;;4.20;88.70;;;;;;4823669;29;20027;-72
2021/12/31 05:22:46;;;;;;;29.50;19.53;;;4.20;89.00;;;;;;4823741;29;20106;-73
2021/12/31 05:25:12;;;;;;;26.20;17.03;;;4.30;89.20;;;;;;4823504;29;20121;-73
2021/12/31 05:27:38;;;;;;;24.90;16.47;;;4.20;89.10;;;;;;4824607;29;20087;-73
2021/12/31 05:30:05;;;;;;;24.90;17.67;;;4.20;89.00;;;;;;4826600;29;20034;-73
2021/12/31 05:32:31;;;;;;;24.93;16.57;;;4.20;89.10;;;;;;4826589;29;20038;-72
2021/12/31 05:34:57;;;;;;;24.03;16.73;;;4.20;89.00;;;;;;4826546;29;20031;-73
2021/12/31 05:37:23;;;;;;;23.70;15.93;;;4.20;89.20;;;;;;4826517;29;20031;-72
2021/12/31 05:39:49;;;;;;;22.07;15.73;;;4.20;89.20;;;;;;4826489;29;20515;-72
2021/12/31 05:42:14;;;;;;;23.17;15.97;;;4.20;89.10;;;;;;4826666;29;20129;-72
2021/12/31 05:44:40;;;;;;;24.67;16.30;;;4.10;89.20;;;;;;4826450;29;20129;-73
2021/12/31 05:47:06;;;;;;;24.20;15.83;;;4.20;89.40;;;;;;4826539;29;20090;-73
2021/12/31 05:49:32;;;;;;;25.27;16.33;;;4.10;89.20;;;;;;4826395;29;20046;-72
2021/12/31 05:51:57;;;;;;;21.83;14.97;;;4.10;89.30;;;;;;4826254;29;20109;-72
2021/12/31 05:54:23;;;;;;;22.67;15.83;;;4.10;89.20;;;;;;4826254;29;20027;-72
2021/12/31 05:56:49;;;;;;;27.97;16.53;;;4.10;89.00;;;;;;4826262;29;20436;-73
2021/12/31 05:59:15;;;;;;;26.13;16.50;;;4.10;89.10;;;;;;4826344;29;20431;-72
2021/12/31 06:01:40;;;;;;;21.97;14.87;;;4.00;88.80;;;;;;4826358;29;20030;-73
2021/12/31 06:04:06;;;;;;;22.00;15.70;;;4.00;88.70;;;;;;4826260;29;20050;-72
2021/12/31 06:06:32;;;;;;;24.67;16.57;;;4.00;88.80;;;;;;4826158;29;20081;-73
2021/12/31 06:08:58;;;;;;;21.97;15.83;;;4.00;88.70;;;;;;4826376;29;20030;-72
2021/12/31 06:11:24;;;;;;;23.20;16.23;;;4.00;88.60;;;;;;4826202;29;20525;-72
2021/12/31 06:13:53;;;;;;;27.43;16.57;;;4.00;88.50;;;;;;4825904;29;20054;-72
2021/12/31 06:16:19;;;;;;;24.03;16.37;;;4.00;88.40;;;;;;4825796;29;20464;-73
2021/12/31 06:18:45;;;;;;;22.23;15.87;;;3.90;88.70;;;;;;4826048;29;20026;-73
2021/12/31 06:21:10;;;;;;;24.10;16.50;;;3.90;88.30;;;;;;4825880;29;20022;-72
2021/12/31 06:23:36;;;;;;;24.27;15.77;;;3.80;88.50;;;;;;4825758;29;20037;-73
2021/12/31 06:26:02;;;;;;;29.80;17.10;;;3.80;88.90;;;;;;4825893;29;20400;-72
2021/12/31 06:28:28;;;;;;;21.70;15.30;;;3.70;88.90;;;;;;4826058;29;20026;-72
2021/12/31 06:30:53;;;;;;;21.80;15.70;;;3.70;89.20;;;;;;4825881;29;20033;-73
2021/12/31 06:33:19;;;;;;;24.20;15.40;;;3.70;89.00;;;;;;4825676;29;20033;-73
2021/12/31 06:35:45;;;;;;;24.30;15.97;;;3.70;89.10;;;;;;4825554;29;20045;-73
2021/12/31 06:38:11;;;;;;;25.80;16.63;;;3.70;89.10;;;;;;4825629;29;20031;-74
2021/12/31 06:40:38;;;;;;;31.20;18.37;;;3.70;89.20;;;;;;4824626;29;20065;-73
2021/12/31 06:43:04;;;;;;;27.30;17.70;;;3.70;89.40;;;;;;4825510;29;20023;-73
2021/12/31 06:45:30;;;;;;;29.50;19.07;;;3.70;89.50;;;;;;4825683;29;20475;-73
2021/12/31 06:47:56;;;;;;;36.17;18.97;;;3.60;90.00;;;;;;4825409;29;20082;-73
2021/12/31 06:50:22;;;;;;;31.43;19.47;;;3.60;90.10;;;;;;4825429;29;20062;-73
2021/12/31 06:52:47;;;;;;;33.73;18.23;;;3.70;90.00;;;;;;4825475;29;20030;-72
2021/12/31 06:55:14;;;;;;;31.90;18.57;;;3.60;89.90;;;;;;4825522;29;20027;-72
2021/12/31 06:57:39;;;;;;;26.67;18.57;;;3.60;90.00;;;;;;4825350;29;20030;-72
2021/12/31 07:00:07;;;;;;;34.77;18.63;;;3.70;90.00;;;;;;4825249;29;20054;-73
2021/12/31 07:02:33;;;;;;;31.10;18.67;;;3.70;89.90;;;;;;4824105;29;20034;-73
2021/12/31 07:04:59;;;;;;;29.93;18.10;;;3.70;89.80;;;;;;4825095;29;20168;-73
2021/12/31 07:07:25;;;;;;;40.17;22.00;;;3.60;89.80;;;;;;4825341;29;20159;-72
2021/12/31 07:09:50;;;;;;;43.93;23.87;;;3.70;90.00;;;;;;4825177;29;20030;-72
2021/12/31 07:12:16;;;;;;;50.40;27.27;;;3.70;89.00;;;;;;4824838;29;20026;-73
2021/12/31 07:14:42;;;;;;;48.77;27.10;;;3.70;89.00;;;;;;4823663;29;20369;-72
2021/12/31 07:17:08;;;;;;;50.70;25.17;;;3.70;88.70;;;;;;4823694;29;20026;-73
2021/12/31 07:19:34;;;;;;;44.40;23.93;;;3.60;88.90;;;;;;4825257;29;20026;-72
2021/12/31 07:22:00;;;;;;;43.67;25.57;;;3.60;89.10;;;;;;4822010;29;20044;-69
2021/12/31 07:24:26;;;;;;;47.13;25.20;;;3.70;89.40;;;;;;4822167;29;20027;-70
2021/12/31 07:26:52;;;;;;;46.47;24.47;;;3.60;89.70;;;;;;4822327;29;20469;-70
2021/12/31 07:29:18;;;;;;;42.43;24.93;;;3.70;89.60;;;;;;4824105;29;20477;-71
2021/12/31 07:31:44;;;;;;;40.07;23.73;;;3.70;89.50;;;;;;4824995;29;20042;-72
2021/12/31 07:34:09;;;;;;;42.50;23.00;;;3.70;89.30;;;;;;4824603;29;20441;-70
2021/12/31 07:36:35;;;;;;;40.07;22.47;;;3.80;89.80;;;;;;4824519;29;20042;-69
2021/12/31 07:39:07;;;;;;;37.93;21.87;;;3.70;90.00;;;;;;4824421;29;20472;-71
2021/12/31 07:41:34;;;;;;;42.13;26.65;;;3.70;90.20;;;;;;4824560;29;20031;-71
2021/12/31 07:44:00;;;;;;;43.53;25.30;;;3.70;90.20;;;;;;4824475;29;20391;-71
2021/12/31 07:46:26;;;;;;;38.47;24.00;;;3.60;90.20;;;;;;4824871;29;20084;-71
2021/12/31 07:48:52;;;;;;;45.10;28.47;;;3.70;90.40;;;;;;4824360;29;20081;-70
2021/12/31 07:51:18;;;;;;;48.47;28.60;;;3.70;90.40;;;;;;4821203;29;20045;-72
2021/12/31 07:53:44;;;;;;;51.97;30.10;;;3.80;90.50;;;;;;4820580;29;20058;-71
2021/12/31 07:56:09;;;;;;;39.97;21.83;;;3.80;90.40;;;;;;4824152;29;20045;-71
2021/12/31 07:58:35;;;;;;;18.77;12.80;;;3.80;90.40;;;;;;4824672;29;20118;-71
2021/12/31 08:01:01;;;;;;;19.53;13.50;;;3.70;89.80;;;;;;4824719;29;20031;-71
2021/12/31 08:03:27;;;;;;;19.70;13.47;;;3.60;90.30;;;;;;4824406;29;20030;-72
2021/12/31 08:05:52;;;;;;;19.13;12.20;;;3.60;90.50;;;;;;4822444;29;20038;-71
2021/12/31 08:08:19;;;;;;;18.10;11.87;;;3.70;90.80;;;;;;4824048;29;20106;-71
2021/12/31 08:10:46;;;;;;;15.87;11.70;;;3.70;90.30;;;;;;4841726;29;20030;-71
2021/12/31 08:13:11;;;;;;;19.13;10.83;;;3.70;90.20;;;;;;4840551;29;20391;-71
2021/12/31 08:15:38;;;;;;;17.43;11.27;;;3.80;90.50;;;;;;4840936;29;20034;-72
2021/12/31 08:18:03;;;;;;;16.93;10.93;;;3.90;90.80;;;;;;4842088;29;20033;-72
2021/12/31 08:20:29;;;;;;;18.07;11.53;;;3.90;90.80;;;;;;4841631;29;20030;-71
2021/12/31 08:23:06;;;;;;;17.47;11.03;;;4.00;91.20;;;;;;4836876;29;20053;-71
2021/12/31 08:25:31;;;;;;;18.03;10.83;;;4.20;90.90;;;;;;4860430;29;20391;-71
2021/12/31 08:27:57;;;;;;;13.77;10.13;;;4.30;90.70;;;;;;4860334;29;20099;-71
2021/12/31 08:30:23;;;;;;;17.67;11.77;;;4.40;90.60;;;;;;4860572;29;20030;-70
2021/12/31 08:32:48;;;;;;;15.10;10.47;;;4.40;90.50;;;;;;4860712;29;20089;-71
2021/12/31 08:35:14;;;;;;;16.13;10.77;;;4.40;90.70;;;;;;4860855;29;20033;-72
2021/12/31 08:37:39;;;;;;;15.37;10.37;;;4.50;90.50;;;;;;4860638;29;20049;-74
2021/12/31 08:40:06;;;;;;;14.43;10.23;;;4.50;90.60;;;;;;4860488;29;20124;-74
2021/12/31 08:42:32;;;;;;;14.90;10.57;;;4.60;90.60;;;;;;4860670;29;20025;-74
2021/12/31 08:44:57;;;;;;;18.53;11.57;;;4.70;90.80;;;;;;4860492;29;20081;-74
2021/12/31 08:47:23;;;;;;;17.10;10.70;;;4.70;91.00;;;;;;4860664;29;20037;-75
2021/12/31 08:49:49;;;;;;;16.50;9.63;;;4.80;91.00;;;;;;4860547;29;20396;-74
2021/12/31 08:52:15;;;;;;;14.03;10.03;;;4.80;91.00;;;;;;4860378;29;20025;-73
2021/12/31 08:54:41;;;;;;;18.30;11.63;;;4.80;91.00;;;;;;4860719;29;20037;-74
2021/12/31 08:57:06;;;;;;;15.77;11.23;;;4.80;91.10;;;;;;4860664;29;20029;-75
2021/12/31 08:59:32;;;;;;;17.13;11.43;;;4.80;91.20;;;;;;4857773;29;20041;-74
2021/12/31 09:01:58;;;;;;;15.10;10.53;;;4.80;91.40;;;;;;4857655;29;20034;-75
2021/12/31 09:04:24;;;;;;;15.53;10.97;;;4.90;91.40;;;;;;4862791;29;20033;-76
2021/12/31 09:06:50;;;;;;;22.83;14.00;;;5.00;91.70;;;;;;4863971;29;20052;-75
2021/12/31 09:09:16;;;;;;;20.47;12.47;;;5.10;91.60;;;;;;4864209;29;20030;-76
2021/12/31 09:11:43;;;;;;;20.63;12.03;;;5.10;91.70;;;;;;4864204;29;20041;-76
2021/12/31 09:14:09;;;;;;;20.47;11.63;;;5.20;91.80;;;;;;4864393;29;20030;-76
2021/12/31 09:16:35;;;;;;;14.83;11.00;;;5.30;91.60;;;;;;4864429;29;20034;-76
2021/12/31 09:19:01;;;;;;;17.23;11.10;;;5.40;91.60;;;;;;4862274;29;20082;-75
2021/12/31 09:21:26;;;;;;;24.50;15.33;;;5.50;91.40;;;;;;4861025;29;20037;-76
2021/12/31 09:23:52;;;;;;;18.60;12.17;;;5.60;91.50;;;;;;4860873;29;20044;-75
2021/12/31 09:26:18;;;;;;;18.50;11.30;;;5.70;91.20;;;;;;4876647;29;20033;-75
2021/12/31 09:28:44;;;;;;;17.53;11.70;;;5.70;91.20;;;;;;4863750;29;20508;-75
2021/12/31 09:31:11;;;;;;;16.20;10.47;;;5.80;90.90;;;;;;4863774;29;20409;-76
2021/12/31 09:33:36;;;;;;;15.37;10.90;;;5.90;90.80;;;;;;4863113;29;20029;-76
2021/12/31 09:36:02;;;;;;;17.70;10.87;;;5.90;90.40;;;;;;4863486;29;20033;-76
2021/12/31 09:38:28;;;;;;;19.47;10.53;;;6.00;90.60;;;;;;4863390;29;20022;-75
2021/12/31 09:40:54;;;;;;;17.00;11.17;;;6.00;90.70;;;;;;4863429;29;20022;-75
2021/12/31 09:43:20;;;;;;;19.90;11.80;;;6.10;90.60;;;;;;4863002;29;20070;-75
2021/12/31 09:45:49;;;;;;;18.10;12.00;;;6.10;90.50;;;;;;4863271;29;20525;-75
2021/12/31 09:48:18;;;;;;;18.13;10.73;;;6.10;90.60;;;;;;4863169;29;20054;-75
2021/12/31 09:50:48;;;;;;;17.27;11.23;;;6.30;90.50;;;;;;4862882;29;20053;-76
2021/12/31 09:53:15;;;;;;;16.03;10.60;;;6.30;90.40;;;;;;4863137;29;20101;-75
2021/12/31 09:55:46;;;;;;;17.73;11.20;;;6.40;90.20;;;;;;4863463;29;20089;-77
2021/12/31 09:58:14;;;;;;;17.37;11.93;;;6.60;89.30;;;;;;4862916;29;20100;-76
2021/12/31 10:00:43;;;;;;;16.77;10.77;;;6.60;89.00;;;;;;4862867;29;20029;-76
2021/12/31 10:03:21;;;;;;;18.57;11.30;;;6.70;89.60;;;;;;4862814;29;20033;-76
2021/12/31 10:05:49;;;;;;;19.53;12.33;;;6.80;88.60;;;;;;4862458;29;20026;-76
2021/12/31 10:08:23;;;;;;;19.23;11.47;;;6.90;88.00;;;;;;4862952;29;20482;-76
2021/12/31 10:11:05;;;;;;;17.43;12.33;;;7.00;89.10;;;;;;4862827;29;20503;-76
2021/12/31 10:13:31;;;;;;;19.00;12.70;;;7.10;88.60;;;;;;4862709;29;20025;-76
2021/12/31 10:15:59;;;;;;;17.30;11.83;;;7.20;88.60;;;;;;4862804;29;20040;-75
2021/12/31 10:18:38;;;;;;;20.00;11.27;;;7.20;88.40;;;;;;4862539;29;20495;-76
2021/12/31 10:21:05;;;;;;;16.17;10.97;;;7.30;87.80;;;;;;4862785;29;20037;-76
2021/12/31 10:23:36;;;;;;;17.53;11.00;;;7.40;87.00;;;;;;4862465;29;20089;-76
2021/12/31 10:26:11;;;;;;;19.63;11.87;;;7.50;87.30;;;;;;4862142;29;20030;-76
2021/12/31 10:28:51;;;;;;;17.27;10.53;;;7.60;87.30;;;;;;4862373;29;20102;-75
2021/12/31 10:31:17;;;;;;;20.10;12.37;;;7.70;87.10;;;;;;4862216;29;20030;-76
2021/12/31 10:33:45;;;;;;;16.80;12.20;;;7.80;86.40;;;;;;4862179;29;20044;-75
2021/12/31 10:36:34;;;;;;;17.00;11.73;;;7.80;86.70;;;;;;4862554;29;20124;-76
2021/12/31 10:39:13;;;;;;;21.33;13.83;;;7.90;86.40;;;;;;4862499;29;20383;-76
2021/12/31 10:41:39;;;;;;;17.73;12.37;;;8.00;86.00;;;;;;4862128;29;20078;-76
2021/12/31 10:44:05;;;;;;;18.07;11.70;;;8.00;86.40;;;;;;4862211;29;20428;-75
2021/12/31 10:46:30;;;;;;;17.63;11.70;;;8.10;86.70;;;;;;4862403;29;20402;-76
2021/12/31 10:49:00;;;;;;;18.27;10.97;;;8.10;86.10;;;;;;4861811;29;20042;-76
2021/12/31 10:51:41;;;;;;;14.80;10.43;;;8.20;85.30;;;;;;4862050;29;20032;-76
2021/12/31 10:54:29;;;;;;;14.73;9.83;;;8.40;84.50;;;;;;4861914;29;20065;-76
2021/12/31 10:56:56;;;;;;;16.40;10.47;;;8.50;84.20;;;;;;4861887;29;20037;-75
2021/12/31 10:59:22;;;;;;;16.80;10.40;;;8.60;83.30;;;;;;4862024;29;20044;-75
2021/12/31 11:01:48;;;;;;;15.40;10.10;;;8.70;83.00;;;;;;4861824;29;20037;-76
2021/12/31 11:04:15;;;;;;;14.97;9.93;;;8.90;83.10;;;;;;4861466;29;20070;-76
2021/12/31 11:06:41;;;;;;;13.27;9.10;;;9.00;82.60;;;;;;4861849;29;20479;-76
2021/12/31 11:09:07;;;;;;;14.67;8.83;;;9.10;82.00;;;;;;4861838;29;20030;-76
2021/12/31 11:11:35;;;;;;;12.63;8.77;;;9.20;82.50;;;;;;4861722;29;20064;-74
2021/12/31 11:14:02;;;;;;;16.43;9.40;;;9.20;82.00;;;;;;4861703;29;20033;-76
2021/12/31 11:16:28;;;;;;;13.23;9.37;;;9.30;81.50;;;;;;4861637;29;20526;-77
2021/12/31 11:18:56;;;;;;;16.43;9.57;;;9.30;81.90;;;;;;4861826;29;20364;-76
2021/12/31 11:21:23;;;;;;;13.37;9.23;;;9.30;83.10;;;;;;4861809;29;20397;-75
2021/12/31 11:23:48;;;;;;;17.63;10.57;;;9.30;82.60;;;;;;4861278;29;20057;-75
2021/12/31 11:26:27;;;;;;;19.03;10.60;;;9.30;82.60;;;;;;4861046;29;20034;-75
2021/12/31 11:28:54;;;;;;;12.10;9.53;;;9.40;82.60;;;;;;4861667;29;20029;-76
2021/12/31 11:31:24;;;;;;;14.80;11.03;;;9.50;82.90;;;;;;4861832;29;20037;-75
2021/12/31 11:33:56;;;;;;;12.57;9.20;;;9.60;83.20;;;;;;4861381;29;20014;-75
2021/12/31 11:36:39;;;;;;;13.60;9.48;;;9.60;82.50;;;;;;4861418;29;20102;-75
2021/12/31 11:39:16;;;;;;;15.50;9.97;;;9.60;81.80;;;;;;4861686;29;20093;-76
2021/12/31 11:41:43;;;;;;;12.07;9.27;;;9.50;82.20;;;;;;4861379;29;20034;-75
2021/12/31 11:44:13;;;;;;;14.53;9.47;;;9.50;82.40;;;;;;4861236;29;20032;-75
2021/12/31 11:46:47;;;;;;;14.47;9.87;;;9.50;82.20;;;;;;4861377;29;20113;-75
2021/12/31 11:49:26;;;;;;;14.13;9.17;;;9.60;82.10;;;;;;4861086;29;20062;-76
2021/12/31 11:51:57;;;;;;;13.10;9.87;;;9.60;81.40;;;;;;4861123;29;20047;-76
2021/12/31 11:54:23;;;;;;;13.67;9.73;;;9.60;81.60;;;;;;4861078;29;20069;-75
2021/12/31 11:56:53;;;;;;;13.73;9.73;;;9.60;82.20;;;;;;4861329;29;20056;-75
2021/12/31 11:59:24;;;;;;;12.33;9.80;;;9.60;81.70;;;;;;4858783;29;20120;-75
2021/12/31 12:01:55;;;;;;;16.23;10.07;;;9.70;81.50;;;;;;4858535;29;20116;-76
2021/12/31 12:04:26;;;;;;;12.60;10.03;;;9.70;81.20;;;;;;4859447;29;20475;-75
2021/12/31 12:06:56;;;;;;;13.77;10.17;;;9.80;80.80;;;;;;4860826;29;20124;-75
2021/12/31 12:09:44;;;;;;;16.40;9.77;;;9.90;80.50;;;;;;4860913;29;20039;-76
2021/12/31 12:12:34;;;;;;;16.50;10.60;;;9.90;80.10;;;;;;4859754;29;20048;-76
2021/12/31 12:15:22;;;;;;;13.40;10.00;;;9.90;80.90;;;;;;4860677;29;20483;-75
2021/12/31 12:17:48;;;;;;;14.27;10.27;;;9.90;81.20;;;;;;4860750;29;20030;-75
2021/12/31 12:20:19;;;;;;;13.48;10.00;;;10.00;80.70;;;;;;4861091;29;20037;-76
2021/12/31 12:22:53;;;;;;;16.97;9.97;;;10.00;80.50;;;;;;4859893;29;20841;-75
2021/12/31 12:25:23;;;;;;;16.03;10.17;;;10.00;80.50;;;;;;4858660;29;20044;-75
2021/12/31 12:28:10;;;;;;;14.90;10.40;;;10.10;80.20;;;;;;4858366;29;20041;-76
2021/12/31 12:30:43;;;;;;;13.17;9.40;;;10.10;80.30;;;;;;4859970;29;20026;-75
2021/12/31 12:35:42;;;;;;;14.10;10.07;;;10.20;79.40;;;;;;4860485;29;20040;-75
2021/12/31 12:38:11;;;;;;;14.73;10.23;;;10.30;79.20;;;;;;4863393;29;20033;-75
2021/12/31 12:40:38;;;;;;;14.43;9.23;;;10.40;79.50;;;;;;4864435;29;20029;-76
2021/12/31 12:43:23;;;;;;;12.32;9.18;;;10.50;79.50;;;;;;4864233;29;20434;-76